sensor_id;sensor_type;location;lat;lon;timestamp;pressure;altitude;pressure_sealevel;temperature;humidity
43480;BME280;29067;35.492;-97.520;2023-04-26T00:00:15;97173.16;;;4.21;100.00
43480;BME280;29067;35.492;-97.520;2023-04-26T00:02:43;97181.96;;;3.95;100.00
43480;BME280;29067;35.492;-97.520;2023-04-26T00:05:11;97183.99;;;4.46;100.00
43480;BME280;29067;35.492;-97.520;2023-04-26T00:07:40;97186.74;;;4.70;100.00
43480;BME280;29067;35.492;-97.520;2023-04-26T00:10:09;97188.34;;;4.37;100.00
43480;BME280;29067;35.492;-97.520;2023-04-26T00:12:38;97189.46;;;4.15;100.00
43480;BME280;29067;35.492;-97.520;2023-04-26T00:15:07;97180.62;;;3.93;100.00
43480;BME280;29067;35.492;-97.520;2023-04-26T00:17:36;97174.28;;;4.29;100.00
43480;BME280;29067;35.492;-97.520;2023-04-26T00:20:04;97166.40;;;4.72;100.00
43480;BME280;29067;35.492;-97.520;2023-04-26T00:22:32;97165.50;;;3.65;100.00
43480;BME280;29067;35.492;-97.520;2023-04-26T00:25:00;97155.03;;;4.01;100.00
43480;BME280;29067;35.492;-97.520;2023-04-26T00:27:29;97148.46;;;4.08;100.00
43480;BME280;29067;35.492;-97.520;2023-04-26T00:29:58;97148.61;;;4.32;100.00
43480;BME280;29067;35.492;-97.520;2023-04-26T00:32:26;97134.15;;;4.42;100.00
43480;BME280;29067;35.492;-97.520;2023-04-26T00:34:54;97132.47;;;4.44;100.00
43480;BME280;29067;35.492;-97.520;2023-04-26T00:37:22;97139.78;;;3.63;100.00
43480;BME280;29067;35.492;-97.520;2023-04-26T00:39:50;97136.74;;;4.39;100.00
43480;BME280;29067;35.492;-97.520;2023-04-26T00:42:18;97136.83;;;5.11;100.00
43480;BME280;29067;35.492;-97.520;2023-04-26T00:44:46;97133.92;;;4.09;100.00
43480;BME280;29067;35.492;-97.520;2023-04-26T00:47:15;97140.65;;;3.73;100.00
43480;BME280;29067;35.492;-97.520;2023-04-26T00:49:43;97131.10;;;4.27;100.00
43480;BME280;29067;35.492;-97.520;2023-04-26T00:52:11;97116.08;;;4.09;100.00
43480;BME280;29067;35.492;-97.520;2023-04-26T00:54:39;97109.50;;;4.92;100.00
43480;BME280;29067;35.492;-97.520;2023-04-26T00:57:07;97106.30;;;3.90;100.00
43480;BME280;29067;35.492;-97.520;2023-04-26T00:59:35;97110.09;;;3.70;100.00
43480;BME280;29067;35.492;-97.520;2023-04-26T01:02:03;97108.62;;;5.19;100.00
43480;BME280;29067;35.492;-97.520;2023-04-26T01:04:32;97116.07;;;3.90;100.00
43480;BME280;29067;35.492;-97.520;2023-04-26T01:07:01;97119.84;;;3.85;100.00
43480;BME280;29067;35.492;-97.520;2023-04-26T01:09:31;97133.31;;;3.87;100.00
43480;BME280;29067;35.492;-97.520;2023-04-26T01:12:00;97130.41;;;3.81;100.00
43480;BME280;29067;35.492;-97.520;2023-04-26T01:14:28;97138.57;;;4.01;100.00
43480;BME280;29067;35.492;-97.520;2023-04-26T01:16:57;97143.50;;;4.15;100.00
43480;BME280;29067;35.492;-97.520;2023-04-26T01:19:25;97139.01;;;3.47;100.00
43480;BME280;29067;35.492;-97.520;2023-04-26T01:21:53;97136.89;;;3.67;100.00
43480;BME280;29067;35.492;-97.520;2023-04-26T01:24:26;97145.17;;;3.92;100.00
43480;BME280;29067;35.492;-97.520;2023-04-26T01:26:54;97145.26;;;3.96;100.00
43480;BME280;29067;35.492;-97.520;2023-04-26T01:29:22;97151.40;;;3.63;100.00
43480;BME280;29067;35.492;-97.520;2023-04-26T01:31:50;97150.76;;;4.36;100.00
43480;BME280;29067;35.492;-97.520;2023-04-26T01:34:17;97152.48;;;4.51;100.00
43480;BME280;29067;35.492;-97.520;2023-04-26T01:36:46;97160.24;;;4.57;100.00
43480;BME280;29067;35.492;-97.520;2023-04-26T01:39:14;97173.42;;;3.80;100.00
43480;BME280;29067;35.492;-97.520;2023-04-26T01:41:42;97162.41;;;5.53;100.00
43480;BME280;29067;35.492;-97.520;2023-04-26T01:44:10;97161.90;;;4.16;100.00
43480;BME280;29067;35.492;-97.520;2023-04-26T01:46:38;97151.14;;;4.34;100.00
43480;BME280;29067;35.492;-97.520;2023-04-26T01:49:06;97148.90;;;5.23;100.00
43480;BME280;29067;35.492;-97.520;2023-04-26T01:51:33;97158.38;;;3.62;100.00
43480;BME280;29067;35.492;-97.520;2023-04-26T01:54:02;97162.82;;;4.26;100.00
43480;BME280;29067;35.492;-97.520;2023-04-26T01:56:29;97163.69;;;5.41;100.00
43480;BME280;29067;35.492;-97.520;2023-04-26T01:58:58;97173.37;;;3.71;100.00
43480;BME280;29067;35.492;-97.520;2023-04-26T02:01:26;97181.39;;;3.86;100.00
43480;BME280;29067;35.492;-97.520;2023-04-26T02:03:54;97182.65;;;4.53;100.00
43480;BME280;29067;35.492;-97.520;2023-04-26T02:06:22;97175.59;;;4.95;100.00
43480;BME280;29067;35.492;-97.520;2023-04-26T02:08:50;97171.62;;;5.28;99.55
43480;BME280;29067;35.492;-97.520;2023-04-26T02:11:18;97173.12;;;4.30;100.00
43480;BME280;29067;35.492;-97.520;2023-04-26T02:13:47;97173.53;;;4.41;100.00
43480;BME280;29067;35.492;-97.520;2023-04-26T02:16:15;97173.34;;;4.72;100.00
43480;BME280;29067;35.492;-97.520;2023-04-26T02:18:43;97170.99;;;5.26;100.00
43480;BME280;29067;35.492;-97.520;2023-04-26T02:21:11;97171.35;;;5.86;99.60
43480;BME280;29067;35.492;-97.520;2023-04-26T02:23:39;97174.55;;;4.88;100.00
43480;BME280;29067;35.492;-97.520;2023-04-26T02:26:07;97180.01;;;5.32;98.73
43480;BME280;29067;35.492;-97.520;2023-04-26T02:28:35;97179.95;;;5.38;96.00
43480;BME280;29067;35.492;-97.520;2023-04-26T02:31:04;97184.26;;;5.27;97.88
43480;BME280;29067;35.492;-97.520;2023-04-26T02:33:33;97189.80;;;3.83;100.00
43480;BME280;29067;35.492;-97.520;2023-04-26T02:36:03;97190.41;;;5.06;100.00
43480;BME280;29067;35.492;-97.520;2023-04-26T02:38:31;97199.56;;;5.13;100.00
43480;BME280;29067;35.492;-97.520;2023-04-26T02:40:59;97208.54;;;4.56;100.00
43480;BME280;29067;35.492;-97.520;2023-04-26T02:43:28;97200.61;;;5.77;100.00
43480;BME280;29067;35.492;-97.520;2023-04-26T02:45:56;97201.70;;;5.22;100.00
43480;BME280;29067;35.492;-97.520;2023-04-26T02:48:24;97209.66;;;5.02;100.00
43480;BME280;29067;35.492;-97.520;2023-04-26T02:50:52;97215.05;;;4.54;100.00
43480;BME280;29067;35.492;-97.520;2023-04-26T02:53:20;97218.63;;;5.92;97.63
43480;BME280;29067;35.492;-97.520;2023-04-26T02:55:48;97222.46;;;5.48;96.96
43480;BME280;29067;35.492;-97.520;2023-04-26T02:58:16;97222.97;;;4.29;99.68
43480;BME280;29067;35.492;-97.520;2023-04-26T03:00:46;97218.96;;;4.93;100.00
43480;BME280;29067;35.492;-97.520;2023-04-26T03:03:14;97227.48;;;4.81;100.00
43480;BME280;29067;35.492;-97.520;2023-04-26T03:05:46;97228.76;;;4.72;100.00
43480;BME280;29067;35.492;-97.520;2023-04-26T03:08:15;97219.63;;;5.13;100.00
43480;BME280;29067;35.492;-97.520;2023-04-26T03:10:44;97217.69;;;3.70;100.00
43480;BME280;29067;35.492;-97.520;2023-04-26T03:13:12;97208.62;;;4.88;100.00
43480;BME280;29067;35.492;-97.520;2023-04-26T03:15:44;97214.38;;;5.16;100.00
43480;BME280;29067;35.492;-97.520;2023-04-26T03:18:12;97222.59;;;5.57;99.95
43480;BME280;29067;35.492;-97.520;2023-04-26T03:20:41;97227.72;;;5.74;97.43
43480;BME280;29067;35.492;-97.520;2023-04-26T03:23:09;97231.41;;;6.04;91.67
43480;BME280;29067;35.492;-97.520;2023-04-26T03:25:37;97239.09;;;6.02;95.83
43480;BME280;29067;35.492;-97.520;2023-04-26T03:28:05;97235.38;;;6.26;90.17
43480;BME280;29067;35.492;-97.520;2023-04-26T03:30:32;97239.15;;;6.21;90.03
43480;BME280;29067;35.492;-97.520;2023-04-26T03:33:00;97249.14;;;5.90;90.62
43480;BME280;29067;35.492;-97.520;2023-04-26T03:35:33;97256.61;;;6.63;85.41
43480;BME280;29067;35.492;-97.520;2023-04-26T03:38:01;97263.99;;;5.89;91.53
43480;BME280;29067;35.492;-97.520;2023-04-26T03:40:29;97267.88;;;6.55;87.06
43480;BME280;29067;35.492;-97.520;2023-04-26T03:42:57;97281.40;;;5.27;93.84
43480;BME280;29067;35.492;-97.520;2023-04-26T03:45:25;97278.79;;;6.79;87.38
43480;BME280;29067;35.492;-97.520;2023-04-26T03:47:54;97289.12;;;4.73;96.53
43480;BME280;29067;35.492;-97.520;2023-04-26T03:50:22;97283.78;;;5.53;93.97
43480;BME280;29067;35.492;-97.520;2023-04-26T03:52:50;97287.10;;;5.64;96.04
43480;BME280;29067;35.492;-97.520;2023-04-26T03:55:18;97286.45;;;5.49;92.81
43480;BME280;29067;35.492;-97.520;2023-04-26T03:57:47;97295.01;;;5.90;94.98
43480;BME280;29067;35.492;-97.520;2023-04-26T04:00:21;97295.53;;;5.77;97.51
43480;BME280;29067;35.492;-97.520;2023-04-26T04:02:59;97294.93;;;5.24;95.71
43480;BME280;29067;35.492;-97.520;2023-04-26T04:05:27;97295.78;;;5.95;95.32
43480;BME280;29067;35.492;-97.520;2023-04-26T04:07:55;97296.10;;;5.01;100.00
43480;BME280;29067;35.492;-97.520;2023-04-26T04:10:23;97296.90;;;5.28;100.00
43480;BME280;29067;35.492;-97.520;2023-04-26T04:12:51;97298.58;;;4.65;100.00
43480;BME280;29067;35.492;-97.520;2023-04-26T04:15:20;97293.06;;;5.39;100.00
43480;BME280;29067;35.492;-97.520;2023-04-26T04:17:48;97293.44;;;5.31;100.00
43480;BME280;29067;35.492;-97.520;2023-04-26T04:20:16;97293.49;;;6.21;97.74
43480;BME280;29067;35.492;-97.520;2023-04-26T04:22:46;97285.47;;;5.67;100.00
43480;BME280;29067;35.492;-97.520;2023-04-26T04:25:13;97282.12;;;5.94;96.33
43480;BME280;29067;35.492;-97.520;2023-04-26T04:27:47;97273.60;;;5.06;100.00
43480;BME280;29067;35.492;-97.520;2023-04-26T04:30:15;97261.27;;;5.90;100.00
43480;BME280;29067;35.492;-97.520;2023-04-26T04:32:44;97249.84;;;4.92;100.00
43480;BME280;29067;35.492;-97.520;2023-04-26T04:35:12;97254.64;;;5.46;100.00
43480;BME280;29067;35.492;-97.520;2023-04-26T04:37:40;97261.74;;;5.14;100.00
43480;BME280;29067;35.492;-97.520;2023-04-26T04:40:09;97257.90;;;6.62;100.00
43480;BME280;29067;35.492;-97.520;2023-04-26T04:42:37;97257.29;;;5.64;100.00
43480;BME280;29067;35.492;-97.520;2023-04-26T04:45:06;97245.56;;;5.55;99.67
43480;BME280;29067;35.492;-97.520;2023-04-26T04:47:35;97242.15;;;5.28;98.01
43480;BME280;29067;35.492;-97.520;2023-04-26T04:50:03;97240.26;;;6.25;93.53
43480;BME280;29067;35.492;-97.520;2023-04-26T04:52:32;97243.25;;;6.52;93.97
43480;BME280;29067;35.492;-97.520;2023-04-26T04:55:01;97243.85;;;6.02;93.09
43480;BME280;29067;35.492;-97.520;2023-04-26T04:57:30;97245.24;;;5.55;92.89
43480;BME280;29067;35.492;-97.520;2023-04-26T04:59:58;97248.94;;;6.80;89.04
43480;BME280;29067;35.492;-97.520;2023-04-26T05:02:26;97256.48;;;6.51;89.84
43480;BME280;29067;35.492;-97.520;2023-04-26T05:04:54;97244.94;;;6.63;90.01
43480;BME280;29067;35.492;-97.520;2023-04-26T05:07:22;97245.34;;;5.78;92.45
43480;BME280;29067;35.492;-97.520;2023-04-26T05:09:50;97241.24;;;6.52;91.98
43480;BME280;29067;35.492;-97.520;2023-04-26T05:12:18;97242.73;;;5.30;97.49
43480;BME280;29067;35.492;-97.520;2023-04-26T05:14:45;97249.54;;;6.01;96.87
43480;BME280;29067;35.492;-97.520;2023-04-26T05:17:14;97246.80;;;5.01;98.36
43480;BME280;29067;35.492;-97.520;2023-04-26T05:19:43;97237.52;;;4.85;100.00
43480;BME280;29067;35.492;-97.520;2023-04-26T05:22:13;97235.58;;;5.58;97.99
43480;BME280;29067;35.492;-97.520;2023-04-26T05:24:41;97243.62;;;5.51;99.08
43480;BME280;29067;35.492;-97.520;2023-04-26T05:27:09;97232.73;;;6.23;96.39
43480;BME280;29067;35.492;-97.520;2023-04-26T05:29:37;97230.60;;;6.57;93.61
43480;BME280;29067;35.492;-97.520;2023-04-26T05:32:05;97238.31;;;6.79;90.65
43480;BME280;29067;35.492;-97.520;2023-04-26T05:34:34;97235.55;;;6.43;94.92
43480;BME280;29067;35.492;-97.520;2023-04-26T05:37:01;97240.43;;;5.66;100.00
43480;BME280;29067;35.492;-97.520;2023-04-26T05:39:34;97244.67;;;5.97;96.78
43480;BME280;29067;35.492;-97.520;2023-04-26T05:42:02;97247.89;;;5.22;100.00
43480;BME280;29067;35.492;-97.520;2023-04-26T05:44:30;97249.37;;;6.02;100.00
43480;BME280;29067;35.492;-97.520;2023-04-26T05:46:58;97243.66;;;7.11;100.00
43480;BME280;29067;35.492;-97.520;2023-04-26T05:49:26;97238.01;;;6.14;97.10
43480;BME280;29067;35.492;-97.520;2023-04-26T05:51:54;97239.39;;;4.97;100.00
43480;BME280;29067;35.492;-97.520;2023-04-26T05:54:22;97229.19;;;5.42;100.00
43480;BME280;29067;35.492;-97.520;2023-04-26T05:56:49;97230.77;;;5.24;100.00
43480;BME280;29067;35.492;-97.520;2023-04-26T05:59:17;97232.98;;;5.49;100.00
43480;BME280;29067;35.492;-97.520;2023-04-26T06:01:45;97231.31;;;5.39;100.00
43480;BME280;29067;35.492;-97.520;2023-04-26T06:04:13;97229.39;;;6.69;97.97
43480;BME280;29067;35.492;-97.520;2023-04-26T06:06:41;97233.93;;;4.91;100.00
43480;BME280;29067;35.492;-97.520;2023-04-26T06:09:09;97233.85;;;4.93;100.00
43480;BME280;29067;35.492;-97.520;2023-04-26T06:11:37;97228.28;;;6.08;99.55
43480;BME280;29067;35.492;-97.520;2023-04-26T06:14:05;97237.05;;;5.01;100.00
43480;BME280;29067;35.492;-97.520;2023-04-26T06:16:33;97229.23;;;5.66;100.00
43480;BME280;29067;35.492;-97.520;2023-04-26T06:19:02;97230.18;;;6.62;96.13
43480;BME280;29067;35.492;-97.520;2023-04-26T06:21:30;97232.15;;;6.71;94.36
43480;BME280;29067;35.492;-97.520;2023-04-26T06:23:58;97232.01;;;6.64;91.14
43480;BME280;29067;35.492;-97.520;2023-04-26T06:26:26;97220.08;;;5.06;97.85
43480;BME280;29067;35.492;-97.520;2023-04-26T06:28:59;97207.14;;;5.56;100.00
43480;BME280;29067;35.492;-97.520;2023-04-26T06:31:32;97205.11;;;5.65;100.00
43480;BME280;29067;35.492;-97.520;2023-04-26T06:34:01;97197.28;;;6.14;100.00
43480;BME280;29067;35.492;-97.520;2023-04-26T06:36:39;97200.28;;;4.03;100.00
43480;BME280;29067;35.492;-97.520;2023-04-26T06:39:07;97199.92;;;5.16;100.00
43480;BME280;29067;35.492;-97.520;2023-04-26T06:41:35;97191.32;;;4.74;100.00
43480;BME280;29067;35.492;-97.520;2023-04-26T06:44:04;97192.47;;;5.41;100.00
43480;BME280;29067;35.492;-97.520;2023-04-26T06:46:32;97202.31;;;5.00;100.00
43480;BME280;29067;35.492;-97.520;2023-04-26T06:49:00;97193.10;;;5.21;100.00
43480;BME280;29067;35.492;-97.520;2023-04-26T06:51:28;97191.45;;;5.90;100.00
43480;BME280;29067;35.492;-97.520;2023-04-26T06:53:56;97191.66;;;6.13;100.00
43480;BME280;29067;35.492;-97.520;2023-04-26T06:56:26;97182.71;;;6.65;100.00
43480;BME280;29067;35.492;-97.520;2023-04-26T06:59:02;97185.75;;;5.77;100.00
43480;BME280;29067;35.492;-97.520;2023-04-26T07:01:31;97176.54;;;6.44;100.00
43480;BME280;29067;35.492;-97.520;2023-04-26T07:04:00;97173.40;;;6.20;100.00
43480;BME280;29067;35.492;-97.520;2023-04-26T07:06:29;97176.96;;;3.98;100.00
43480;BME280;29067;35.492;-97.520;2023-04-26T07:08:58;97170.11;;;6.72;100.00
43480;BME280;29067;35.492;-97.520;2023-04-26T07:11:26;97167.35;;;5.14;100.00
43480;BME280;29067;35.492;-97.520;2023-04-26T07:13:54;97159.67;;;4.97;100.00
43480;BME280;29067;35.492;-97.520;2023-04-26T07:16:22;97155.65;;;5.72;100.00
43480;BME280;29067;35.492;-97.520;2023-04-26T07:18:50;97156.79;;;5.53;100.00
43480;BME280;29067;35.492;-97.520;2023-04-26T07:21:20;97165.87;;;5.80;100.00
43480;BME280;29067;35.492;-97.520;2023-04-26T07:23:51;97175.11;;;4.98;100.00
43480;BME280;29067;35.492;-97.520;2023-04-26T07:26:20;97185.63;;;5.90;100.00
43480;BME280;29067;35.492;-97.520;2023-04-26T07:28:47;97197.24;;;7.39;99.23
43480;BME280;29067;35.492;-97.520;2023-04-26T07:31:17;97214.34;;;6.28;100.00
43480;BME280;29067;35.492;-97.520;2023-04-26T07:33:45;97217.83;;;7.00;98.21
43480;BME280;29067;35.492;-97.520;2023-04-26T07:36:18;97209.08;;;7.07;97.85
43480;BME280;29067;35.492;-97.520;2023-04-26T07:38:46;97190.33;;;7.65;92.15
43480;BME280;29067;35.492;-97.520;2023-04-26T07:41:13;97184.13;;;6.50;95.01
43480;BME280;29067;35.492;-97.520;2023-04-26T07:43:41;97185.20;;;6.71;92.66
43480;BME280;29067;35.492;-97.520;2023-04-26T07:46:15;97181.30;;;6.07;97.70
43480;BME280;29067;35.492;-97.520;2023-04-26T07:48:43;97185.17;;;6.55;94.95
43480;BME280;29067;35.492;-97.520;2023-04-26T07:51:11;97195.10;;;6.52;93.50
43480;BME280;29067;35.492;-97.520;2023-04-26T07:53:40;97213.87;;;7.26;95.24
43480;BME280;29067;35.492;-97.520;2023-04-26T07:56:09;97233.41;;;6.38;98.12
43480;BME280;29067;35.492;-97.520;2023-04-26T07:58:37;97258.39;;;8.88;89.44
43480;BME280;29067;35.492;-97.520;2023-04-26T08:01:05;97296.00;;;8.26;87.11
43480;BME280;29067;35.492;-97.520;2023-04-26T08:03:33;97320.40;;;7.62;92.26
43480;BME280;29067;35.492;-97.520;2023-04-26T08:06:01;97330.12;;;6.90;92.28
43480;BME280;29067;35.492;-97.520;2023-04-26T08:08:29;97329.20;;;7.48;93.05
43480;BME280;29067;35.492;-97.520;2023-04-26T08:10:57;97309.61;;;7.78;91.97
43480;BME280;29067;35.492;-97.520;2023-04-26T08:13:25;97283.79;;;7.38;92.47
43480;BME280;29067;35.492;-97.520;2023-04-26T08:15:58;97265.56;;;7.38;91.09
43480;BME280;29067;35.492;-97.520;2023-04-26T08:18:26;97260.03;;;6.13;98.93
43480;BME280;29067;35.492;-97.520;2023-04-26T08:20:54;97245.53;;;7.57;90.98
43480;BME280;29067;35.492;-97.520;2023-04-26T08:23:31;97202.92;;;6.84;92.78
43480;BME280;29067;35.492;-97.520;2023-04-26T08:26:06;97127.08;;;5.60;100.00
43480;BME280;29067;35.492;-97.520;2023-04-26T08:28:34;97117.81;;;5.71;100.00
43480;BME280;29067;35.492;-97.520;2023-04-26T08:31:02;97142.22;;;6.62;100.00
43480;BME280;29067;35.492;-97.520;2023-04-26T08:33:29;97175.30;;;8.14;93.14
43480;BME280;29067;35.492;-97.520;2023-04-26T08:35:58;97193.70;;;8.21;90.93
43480;BME280;29067;35.492;-97.520;2023-04-26T08:38:26;97197.59;;;7.68;91.66
43480;BME280;29067;35.492;-97.520;2023-04-26T08:40:55;97182.19;;;8.01;90.85
43480;BME280;29067;35.492;-97.520;2023-04-26T08:43:25;97160.98;;;6.30;97.17
43480;BME280;29067;35.492;-97.520;2023-04-26T08:45:54;97143.27;;;5.93;100.00
43480;BME280;29067;35.492;-97.520;2023-04-26T08:48:22;97140.52;;;4.36;100.00
43480;BME280;29067;35.492;-97.520;2023-04-26T08:50:51;97152.93;;;4.56;100.00
43480;BME280;29067;35.492;-97.520;2023-04-26T08:53:20;97153.59;;;4.25;100.00
43480;BME280;29067;35.492;-97.520;2023-04-26T08:55:49;97152.79;;;5.43;100.00
43480;BME280;29067;35.492;-97.520;2023-04-26T08:58:17;97154.00;;;5.83;100.00
43480;BME280;29067;35.492;-97.520;2023-04-26T09:00:46;97152.04;;;4.33;100.00
43480;BME280;29067;35.492;-97.520;2023-04-26T09:03:14;97147.73;;;5.17;100.00
43480;BME280;29067;35.492;-97.520;2023-04-26T09:05:49;97144.88;;;5.49;100.00
43480;BME280;29067;35.492;-97.520;2023-04-26T09:08:28;97136.58;;;4.70;100.00
43480;BME280;29067;35.492;-97.520;2023-04-26T09:10:56;97133.05;;;4.60;100.00
43480;BME280;29067;35.492;-97.520;2023-04-26T09:13:32;97137.73;;;5.34;100.00
43480;BME280;29067;35.492;-97.520;2023-04-26T09:16:01;97126.91;;;5.39;100.00
43480;BME280;29067;35.492;-97.520;2023-04-26T09:18:28;97108.39;;;4.52;100.00
43480;BME280;29067;35.492;-97.520;2023-04-26T09:21:05;97087.66;;;4.71;100.00
43480;BME280;29067;35.492;-97.520;2023-04-26T09:23:35;97087.23;;;4.25;100.00
43480;BME280;29067;35.492;-97.520;2023-04-26T09:26:19;97106.75;;;3.58;100.00
43480;BME280;29067;35.492;-97.520;2023-04-26T09:28:48;97128.62;;;4.00;100.00
43480;BME280;29067;35.492;-97.520;2023-04-26T09:31:36;97128.11;;;4.58;100.00
43480;BME280;29067;35.492;-97.520;2023-04-26T09:34:05;97129.67;;;4.18;100.00
43480;BME280;29067;35.492;-97.520;2023-04-26T09:36:46;97126.15;;;4.59;100.00
43480;BME280;29067;35.492;-97.520;2023-04-26T09:39:14;97113.87;;;5.30;100.00
43480;BME280;29067;35.492;-97.520;2023-04-26T09:41:43;97122.02;;;4.37;100.00
43480;BME280;29067;35.492;-97.520;2023-04-26T09:44:29;97119.04;;;5.08;100.00
43480;BME280;29067;35.492;-97.520;2023-04-26T09:47:00;97120.80;;;5.24;100.00
43480;BME280;29067;35.492;-97.520;2023-04-26T09:49:29;97118.44;;;5.50;100.00
43480;BME280;29067;35.492;-97.520;2023-04-26T09:52:02;97112.80;;;4.41;100.00
43480;BME280;29067;35.492;-97.520;2023-04-26T09:54:40;97104.89;;;4.17;100.00
43480;BME280;29067;35.492;-97.520;2023-04-26T09:57:09;97108.20;;;4.71;100.00
43480;BME280;29067;35.492;-97.520;2023-04-26T09:59:40;97115.13;;;4.31;100.00
43480;BME280;29067;35.492;-97.520;2023-04-26T10:02:13;97110.77;;;5.73;100.00
43480;BME280;29067;35.492;-97.520;2023-04-26T10:04:43;97109.89;;;5.58;100.00
43480;BME280;29067;35.492;-97.520;2023-04-26T10:07:12;97102.26;;;4.60;100.00
43480;BME280;29067;35.492;-97.520;2023-04-26T10:09:41;97103.30;;;3.11;100.00
43480;BME280;29067;35.492;-97.520;2023-04-26T10:12:10;97101.05;;;4.78;100.00
43480;BME280;29067;35.492;-97.520;2023-04-26T10:14:38;97103.82;;;4.66;100.00
43480;BME280;29067;35.492;-97.520;2023-04-26T10:17:07;97095.23;;;4.39;100.00
43480;BME280;29067;35.492;-97.520;2023-04-26T10:19:35;97083.96;;;4.04;100.00
43480;BME280;29067;35.492;-97.520;2023-04-26T10:22:09;97056.55;;;4.19;100.00
43480;BME280;29067;35.492;-97.520;2023-04-26T10:24:39;97044.63;;;4.96;100.00
43480;BME280;29067;35.492;-97.520;2023-04-26T10:27:07;97036.20;;;5.11;100.00
43480;BME280;29067;35.492;-97.520;2023-04-26T10:30:08;97022.66;;;3.20;100.00
43480;BME280;29067;35.492;-97.520;2023-04-26T10:33:12;97017.96;;;3.69;100.00
43480;BME280;29067;35.492;-97.520;2023-04-26T10:36:14;97030.58;;;4.30;100.00
43480;BME280;29067;35.492;-97.520;2023-04-26T10:39:30;97047.32;;;4.68;100.00
43480;BME280;29067;35.492;-97.520;2023-04-26T10:42:18;97049.74;;;4.20;100.00
43480;BME280;29067;35.492;-97.520;2023-04-26T10:44:46;97050.55;;;4.52;100.00
43480;BME280;29067;35.492;-97.520;2023-04-26T10:47:23;97055.74;;;3.39;100.00
43480;BME280;29067;35.492;-97.520;2023-04-26T10:49:51;97083.47;;;4.04;100.00
43480;BME280;29067;35.492;-97.520;2023-04-26T10:52:25;97092.64;;;4.98;100.00
43480;BME280;29067;35.492;-97.520;2023-04-26T10:54:54;97103.16;;;6.18;100.00
43480;BME280;29067;35.492;-97.520;2023-04-26T10:57:45;97112.63;;;6.23;100.00
43480;BME280;29067;35.492;-97.520;2023-04-26T11:03:04;97099.18;;;5.69;100.00
43480;BME280;29067;35.492;-97.520;2023-04-26T11:05:46;97096.27;;;5.57;100.00
43480;BME280;29067;35.492;-97.520;2023-04-26T11:08:17;97099.23;;;6.07;100.00
43480;BME280;29067;35.492;-97.520;2023-04-26T11:10:50;97100.86;;;5.15;100.00
43480;BME280;29067;35.492;-97.520;2023-04-26T11:13:18;97107.95;;;4.46;100.00
43480;BME280;29067;35.492;-97.520;2023-04-26T11:15:46;97102.15;;;5.30;100.00
43480;BME280;29067;35.492;-97.520;2023-04-26T11:18:19;97094.12;;;4.65;100.00
43480;BME280;29067;35.492;-97.520;2023-04-26T11:20:47;97091.30;;;4.62;100.00
43480;BME280;29067;35.492;-97.520;2023-04-26T11:23:17;97088.01;;;4.33;100.00
43480;BME280;29067;35.492;-97.520;2023-04-26T11:25:46;97085.47;;;6.12;100.00
43480;BME280;29067;35.492;-97.520;2023-04-26T11:28:15;97078.99;;;4.51;100.00
43480;BME280;29067;35.492;-97.520;2023-04-26T11:30:43;97066.60;;;4.62;100.00
43480;BME280;29067;35.492;-97.520;2023-04-26T11:33:16;97053.22;;;5.37;100.00
43480;BME280;29067;35.492;-97.520;2023-04-26T11:35:45;97047.53;;;5.65;100.00
43480;BME280;29067;35.492;-97.520;2023-04-26T11:38:13;97047.39;;;4.67;100.00
43480;BME280;29067;35.492;-97.520;2023-04-26T11:40:41;97052.38;;;4.28;100.00
43480;BME280;29067;35.492;-97.520;2023-04-26T11:43:09;97047.95;;;4.72;100.00
43480;BME280;29067;35.492;-97.520;2023-04-26T11:45:38;97050.01;;;4.76;100.00
43480;BME280;29067;35.492;-97.520;2023-04-26T11:48:09;97052.94;;;3.78;100.00
43480;BME280;29067;35.492;-97.520;2023-04-26T11:50:40;97043.37;;;5.74;100.00
43480;BME280;29067;35.492;-97.520;2023-04-26T11:53:08;97043.60;;;3.74;100.00
43480;BME280;29067;35.492;-97.520;2023-04-26T11:55:36;97035.64;;;5.37;100.00
43480;BME280;29067;35.492;-97.520;2023-04-26T11:58:11;97039.29;;;5.24;100.00
43480;BME280;29067;35.492;-97.520;2023-04-26T12:00:57;97046.47;;;4.88;100.00
43480;BME280;29067;35.492;-97.520;2023-04-26T12:03:29;97047.77;;;4.93;100.00
43480;BME280;29067;35.492;-97.520;2023-04-26T12:05:57;97055.29;;;4.90;100.00
43480;BME280;29067;35.492;-97.520;2023-04-26T12:08:26;97063.69;;;3.84;100.00
43480;BME280;29067;35.492;-97.520;2023-04-26T12:10:58;97060.57;;;4.84;100.00
43480;BME280;29067;35.492;-97.520;2023-04-26T12:13:27;97061.65;;;4.45;100.00
43480;BME280;29067;35.492;-97.520;2023-04-26T12:15:56;97060.13;;;4.80;100.00
43480;BME280;29067;35.492;-97.520;2023-04-26T12:18:30;97078.39;;;5.78;100.00
43480;BME280;29067;35.492;-97.520;2023-04-26T12:20:59;97094.76;;;5.44;100.00
43480;BME280;29067;35.492;-97.520;2023-04-26T12:23:36;97096.64;;;5.66;100.00
43480;BME280;29067;35.492;-97.520;2023-04-26T12:26:14;97089.23;;;5.54;100.00
43480;BME280;29067;35.492;-97.520;2023-04-26T12:28:43;97091.78;;;5.32;100.00
43480;BME280;29067;35.492;-97.520;2023-04-26T12:31:11;97101.39;;;5.66;100.00
43480;BME280;29067;35.492;-97.520;2023-04-26T12:33:40;97118.14;;;4.45;100.00
43480;BME280;29067;35.492;-97.520;2023-04-26T12:36:09;97132.21;;;5.65;100.00
43480;BME280;29067;35.492;-97.520;2023-04-26T12:38:38;97144.87;;;6.64;100.00
43480;BME280;29067;35.492;-97.520;2023-04-26T12:41:11;97149.90;;;7.44;93.82
43480;BME280;29067;35.492;-97.520;2023-04-26T12:43:39;97151.86;;;6.85;94.26
43480;BME280;29067;35.492;-97.520;2023-04-26T12:46:07;97148.21;;;7.11;91.77
43480;BME280;29067;35.492;-97.520;2023-04-26T12:48:35;97158.89;;;4.64;100.00
43480;BME280;29067;35.492;-97.520;2023-04-26T12:51:03;97156.09;;;6.35;100.00
43480;BME280;29067;35.492;-97.520;2023-04-26T12:53:31;97164.99;;;6.35;97.68
43480;BME280;29067;35.492;-97.520;2023-04-26T12:55:59;97179.74;;;6.48;94.60
43480;BME280;29067;35.492;-97.520;2023-04-26T12:58:27;97206.91;;;6.30;95.55